Airfield :
LOGIN :

Register | Disclaimer

   EN    FR    IT 

 










Legend :    VFR   Marginal VFR   IFR   Intensive IFR   Very Intensive IFR
Visi :
Ceiling :
>= 8 km
>= 3000ft
5 to 8 km
1000 to 3000 ft
1500m to 5 km
500 to 1000 ft
800 to 1500m
200 to 500 ft
< 800m
< 200 ft
Symbols :   Thunderstorms  Fog  Heavy snow  Heavy precipitations  Wind > 20 kt
SIGMETs :     Misc.  Thunderstorms  Icing  Turbulence  Mountain Waves  Volcanic Ashes







- Airport Elevation : 12 ft
- IATA code : NCE
- Download approach charts


LFMN - Nice

CURRENT METAR :
  • 230130Z 09006KT 9999 SCT005 BKN230 16/15 Q1018 TEMPO 3000 BR BKN008

EXPIRED METARs :
  • 230100Z 08004KT 9999 SCT005 BKN270 16/14 Q1018 TEMPO 3000 BR BKN008
  • 230030Z VRB02KT 9999 FEW005 BKN270 15/11 Q1018 TEMPO 3000 BR BKN008
  • 230000Z 00000KT CAVOK 15/11 Q1018 NOSIG
  • 222330Z 26003KT CAVOK 15/11 Q1018 NOSIG
  • 222300Z 26004KT CAVOK 15/11 Q1018 NOSIG

TAF TAF LFMN
Valid from the 22 at 21:00 until the 24 at 03:00 UTC


222000Z 2221/2403 34005KT CAVOK
TEMPO 2300/2307 09010KT BKN010
PROB40
TEMPO 2301/2307 3000 BR OVC008
PROB30
TEMPO 2302/2306 VRB02KT 0800 BCFG VV///
BECMG 2307/2309 15010KT SCT020
BECMG 2318/2320 09010KT
TEMPO 2321/2403 BKN010
PROB30
TEMPO 2400/2403 3000 BR
ATIS : +33 4 93 17 21 16
No reported NOTAMs for that airfield.



MET'MAP, your aeronautical weather chart ! - Copyright ORBIFLY December 2007 - Disclaimer

ORBIFLY MET'MAP TEAM :

Programming & Development : Alexandra Zaïnal
Concept & Development : Baudouin d'Aumeries
Co-Development & Prog : Marc-Olivier Méhu
Technical & hardware support : Manuel Goepfert

Contact : metmap@orbifly.com




SOURCES & CREDITS :

   NOAA